CW8386 Weather Reports


Display with metric or nautical units.
time (UTC)temp
F
wind
direction
speed
MPH
gust
MPH
rain 1hr
in
rain 24hr
in
rain mn
in
humidity
%
barometer
mb
20200226180115 26 274 1.0 4.0 0.00 0.00 0.00 54 1025.5
20200226175615 26 360 0.0 4.0 0.00 0.00 0.00 54 1025.5
20200226175035 26 257 2.0 3.0 0.00 0.00 0.00 54 1025.4
20200226174538 26 257 0.0 1.0 0.00 0.00 0.00 53 1025.4
20200226174100 25 257 0.0 1.0 0.00 0.00 0.00 53 1025.3
20200226173543 24 257 0.0 2.0 0.00 0.00 0.00 54 1025.3
20200226173103 24 257 0.0 4.0 0.00 0.00 0.00 55 1025.2
20200226172525 24 257 1.0 4.0 0.00 0.00 0.00 55 1025.3
20200226172027 24 256 0.0 0.0 0.00 0.00 0.00 56 1025.4
20200226171529 24 256 0.0 0.0 0.00 0.00 0.00 55 1025.5
20200226171031 24 256 0.0 0.0 0.00 0.00 0.00 57 1025.5
20200226170555 23 256 0.0 0.0 0.00 0.00 0.00 58 1025.6
20200226170035 23 256 0.0 0.0 0.00 0.00 0.00 59 1025.7
20200226165558 22 256 0.0 0.0 0.00 0.00 0.00 61 1025.7
20200226165059 21 256 0.0 0.0 0.00 0.00 0.00 63 1025.7
20200226164601 20 256 0.0 0.0 0.00 0.00 0.00 66 1025.7
20200226164043 19 256 0.0 0.0 0.00 0.00 0.00 69 1025.6
20200226163546 17 256 0.0 0.0 0.00 0.00 0.00 70 1025.8
20200226163124 17 256 0.0 0.0 0.00 0.00 0.00 70 1025.9
20200226162541 16 256 0.0 0.0 0.00 0.00 0.00 70 1026.0
20200226162040 16 256 0.0 0.0 0.00 0.00 0.00 71 1026.0
20200226161543 16 256 0.0 0.0 0.00 0.00 0.00 73 1026.0
20200226161043 15 256 0.0 0.0 0.00 0.00 0.00 74 1026.0
20200226160544 14 256 0.0 4.0 0.00 0.00 0.00 74 1025.8
20200226160042 13 256 0.0 4.0 0.00 0.00 0.00 75 1025.9
20200226155541 13 256 3.0 5.0 0.00 0.00 0.00 76 1026.0
20200226155041 13 256 4.0 5.0 0.00 0.00 0.00 76 1026.1
20200226154540 12 256 0.0 0.0 0.00 0.00 0.00 76 1026.1
20200226154040 12 256 0.0 0.0 0.00 0.00 0.00 77 1026.2
20200226153541 11 256 0.0 0.0 0.00 0.00 0.00 77 1026.3
20200226153039 11 256 0.0 0.0 0.00 0.00 0.00 77 1026.2
20200226152558 11 256 0.0 0.0 0.00 0.00 0.00 78 1026.2
20200226152037 11 256 0.0 0.0 0.00 0.00 0.00 78 1026.3
20200226151536 11 256 0.0 4.0 0.00 0.00 0.00 78 1026.4
20200226151036 11 256 2.0 5.0 0.00 0.00 0.00 78 1026.3
20200226150540 10 256 4.0 5.0 0.00 0.00 0.00 78 1026.2
20200226150038 10 256 0.0 0.0 0.00 0.00 0.00 79 1026.5
20200226145557 9 256 0.0 0.0 0.00 0.00 0.00 79 1026.4
20200226145036 9 256 0.0 0.0 0.00 0.00 0.00 79 1026.3
20200226144535 8 256 0.0 0.0 0.00 0.00 0.00 79 1026.6
20200226144034 8 256 0.0 0.0 0.00 0.00 0.00 79 1026.3
20200226143534 8 256 0.0 0.0 0.00 0.00 0.00 79 1026.0
20200226143114 8 256 0.0 0.0 0.00 0.00 0.00 79 1025.9
20200226142532 8 256 0.0 0.0 0.00 0.00 0.00 79 1025.8
20200226142112 7 256 0.0 3.0 0.00 0.00 0.00 79 1026.0
20200226141528 7 256 0.0 3.0 0.00 0.00 0.00 79 1026.0
20200226141108 7 256 0.0 0.0 0.00 0.00 0.00 79 1026.0
20200226140546 7 256 0.0 0.0 0.00 0.00 0.00 79 1026.8
20200226140044 7 256 0.0 0.0 0.00 0.00 0.00 79 1026.7
20200226135544 6 256 0.0 0.0 0.00 0.00 0.00 79 1026.7
20200226135043 6 256 0.0 0.0 0.00 0.00 0.00 79 1026.6
20200226134603 6 255 0.0 0.0 0.00 0.00 0.00 79 1026.8
20200226134039 6 254 0.0 1.0 0.00 0.00 0.00 79 1026.8
20200226133539 6 255 0.0 2.0 0.00 0.00 0.00 79 1026.8
20200226133037 7 254 0.0 1.0 0.00 0.00 0.00 79 1026.8
20200226132537 7 256 0.0 0.0 0.00 0.00 0.00 79 1026.7
20200226132057 6 256 0.0 0.0 0.00 0.00 0.00 79 1026.8
20200226131555 6 256 0.0 0.0 0.00 0.00 0.00 79 1026.8
20200226131032 6 256 0.0 0.0 0.00 0.00 0.00 79 1026.8
20200226130553 6 256 0.0 3.0 0.00 0.00 0.00 79 1026.7
20200226130034 5 257 0.0 5.0 0.00 0.00 0.00 78 1026.6
20200226125609 6 256 2.0 5.0 0.00 0.00 0.00 78 1026.5
20200226125030 6 257 0.0 4.0 0.00 0.00 0.00 79 1026.4
20200226124530 5 256 0.0 0.0 0.00 0.00 0.00 78 1026.4
20200226124029 5 256 0.0 0.0 0.00 0.00 0.00 78 1026.3
20200226123549 6 256 0.0 0.0 0.00 0.00 0.00 78 1026.2
20200226123027 6 256 0.0 0.0 0.00 0.00 0.00 78 1026.1
20200226122526 6 256 0.0 0.0 0.00 0.00 0.00 78 1026.1
20200226122046 6 256 0.0 0.0 0.00 0.00 0.00 78 1026.1
20200226121545 6 256 0.0 0.0 0.00 0.00 0.00 78 1026.0
20200226121044 5 256 0.0 4.0 0.00 0.00 0.00 78 1026.2
20200226120544 5 256 3.0 4.0 0.00 0.00 0.00 77 1026.2
20200226120045 5 256 0.0 0.0 0.00 0.00 0.00 77 1026.1
20200226115525 5 256 0.0 0.0 0.00 0.00 0.00 76 1025.9
20200226115028 6 256 0.0 0.0 0.00 0.00 0.00 77 1026.1
20200226114528 6 256 0.0 0.0 0.00 0.00 0.00 77 1026.2
20200226114108 6 256 0.0 0.0 0.00 0.00 0.00 77 1026.2
20200226113546 6 256 0.0 0.0 0.00 0.00 0.00 77 1026.3
20200226113104 6 256 0.0 0.0 0.00 0.00 0.00 77 1026.2
20200226112603 6 256 0.0 0.0 0.00 0.00 0.00 77 1026.3
20200226112123 6 256 0.0 3.0 0.00 0.00 0.00 77 1026.3
20200226111601 6 256 0.0 3.0 0.00 0.00 0.00 77 1026.3
20200226111038 6 256 0.0 2.0 0.00 0.00 0.00 77 1026.3
20200226110538 6 256 0.0 4.0 0.00 0.00 0.00 77 1026.4
20200226110056 6 256 2.0 4.0 0.00 0.00 0.00 76 1026.4
20200226105541 6 256 0.0 4.0 0.00 0.00 0.00 77 1026.5
20200226105041 6 256 0.0 0.0 0.00 0.00 0.00 76 1026.5
20200226104540 7 256 0.0 0.0 0.00 0.00 0.00 77 1026.6
20200226104038 7 256 0.0 0.0 0.00 0.00 0.00 76 1026.6
20200226103538 7 256 0.0 0.0 0.00 0.00 0.00 77 1026.6
20200226103057 7 256 0.0 0.0 0.00 0.00 0.00 76 1026.5
20200226102535 7 256 0.0 0.0 0.00 0.00 0.00 76 1026.4
20200226102054 7 256 0.0 0.0 0.00 0.00 0.00 76 1026.3
20200226101553 7 256 0.0 0.0 0.00 0.00 0.00 75 1026.5
20200226101031 7 256 0.0 0.0 0.00 0.00 0.00 75 1026.5
20200226100551 8 256 0.0 0.0 0.00 0.00 0.00 75 1026.6
20200226100029 8 256 0.0 0.0 0.00 0.00 0.00 75 1026.6
20200226095528 8 256 0.0 0.0 0.00 0.00 0.00 75 1026.5
20200226095107 9 256 0.0 0.0 0.00 0.00 0.00 75 1026.5
20200226094605 9 256 0.0 0.0 0.00 0.00 0.00 75 1026.4
20200226094124 9 256 0.0 0.0 0.00 0.00 0.00 75 1026.5
20200226093542 8 256 0.0 0.0 0.00 0.00 0.00 75 1026.7
20200226093040 8 256 0.0 0.0 0.00 0.00 0.00 75 1026.8
20200226092559 8 256 0.0 0.0 0.00 0.00 0.00 74 1026.8
20200226092057 8 256 0.0 0.0 0.00 0.00 0.00 75 1026.8
20200226091536 8 256 0.0 5.0 0.00 0.00 0.00 74 1026.9
20200226091035 9 256 0.0 5.0 0.00 0.00 0.00 74 1026.9
20200226090535 9 256 2.0 4.0 0.00 0.00 0.00 74 1027.0
20200226090033 9 257 3.0 4.0 0.00 0.00 0.00 74 1027.0
20200226085536 9 256 0.0 3.0 0.00 0.00 0.00 75 1026.9
20200226085055 9 257 2.0 5.0 0.00 0.00 0.00 75 1027.8
20200226084534 9 256 3.0 6.0 0.00 0.00 0.00 75 1027.9
20200226084034 9 257 4.0 6.0 0.00 0.00 0.00 75 1027.8
20200226083554 9 257 4.0 6.0 0.00 0.00 0.00 75 1027.9
20200226083031 8 257 5.0 6.0 0.00 0.00 0.00 75 1028.0
20200226082530 8 256 2.0 5.0 0.00 0.00 0.00 74 1028.1
20200226082029 9 257 1.0 3.0 0.00 0.00 0.00 74 1028.1
20200226081529 9 257 0.0 0.0 0.00 0.00 0.00 74 1028.0
20200226081028 9 256 0.0 0.0 0.00 0.00 0.00 74 1028.1
20200226080528 9 257 0.0 0.0 0.00 0.00 0.00 74 1028.0
20200226080026 9 257 0.0 0.0 0.00 0.00 0.00 74 1028.1
20200226075546 9 256 0.0 0.0 0.00 0.00 0.00 74 1028.2
20200226075046 9 257 0.0 5.0 0.00 0.00 0.00 74 1028.3
20200226074624 9 256 0.0 5.0 0.00 0.00 0.00 73 1028.4
20200226074042 10 257 2.0 4.0 0.00 0.00 0.00 73 1028.5
20200226073602 10 257 1.0 5.0 0.00 0.00 0.00 73 1028.6
20200226073059 10 256 0.0 5.0 0.00 0.00 0.00 72 1028.6
20200226072537 10 257 3.0 5.0 0.00 0.00 0.00 72 1028.7
20200226072116 10 256 3.0 4.0 0.00 0.00 0.00 72 1028.7
20200226071553 11 256 0.0 5.0 0.00 0.00 0.00 71 1028.7
20200226071032 11 257 2.0 5.0 0.00 0.00 0.00 70 1028.7
20200226070612 12 257 0.0 3.0 0.00 0.00 0.00 70 1028.7
20200226070029 12 257 0.0 3.0 0.00 0.00 0.00 70 1028.8
20200226065527 13 256 3.0 4.0 0.00 0.00 0.00 70 1028.8
20200226065030 13 256 0.0 0.0 0.00 0.00 0.00 70 1028.9
20200226064549 13 257 0.0 0.0 0.00 0.00 0.00 69 1029.0
20200226064027 14 257 0.0 0.0 0.00 0.00 0.00 69 1029.1
20200226063527 14 256 0.0 2.0 0.00 0.00 0.00 69 1029.1
20200226063105 15 257 0.0 4.0 0.00 0.00 0.00 69 1029.1
20200226062543 15 256 1.0 4.0 0.00 0.00 0.00 69 1029.1
20200226062122 15 257 3.0 9.0 0.00 0.00 0.00 69 1029.1
20200226061539 14 256 2.0 9.0 0.00 0.00 0.00 71 1029.2
20200226061059 14 257 5.0 7.0 0.00 0.00 0.00 71 1029.2
20200226060557 13 151 2.0 6.0 0.00 0.00 0.00 70 1029.2
20200226060034 13 150 4.0 7.0 0.00 0.00 0.00 71 1029.2
20200226055553 13 360 6.0 7.0 0.00 0.00 0.00 70 1029.3
20200226055031 13 143 3.0 6.0 0.00 0.00 0.00 70 1029.3
20200226054530 13 143 2.0 6.0 0.00 0.00 0.00 71 1029.2
20200226054050 13 142 4.0 6.0 0.00 0.00 0.00 71 1029.2
20200226053529 13 142 3.0 6.0 0.00 0.00 0.00 69 1029.3
20200226053028 13 143 5.0 6.0 0.00 0.00 0.00 68 1029.2
20200226052527 14 143 3.0 4.0 0.00 0.00 0.00 68 1029.2
20200226052027 15 142 1.0 4.0 0.00 0.00 0.00 68 1029.3
20200226051606 15 143 3.0 4.0 0.00 0.00 0.00 69 1029.4
20200226051124 14 142 2.0 4.0 0.00 0.00 0.00 70 1029.3
20200226050622 13 143 3.0 5.0 0.00 0.00 0.00 69 1029.5
20200226050057 14 142 3.0 5.0 0.00 0.00 0.00 67 1029.4
20200226045535 15 143 1.0 5.0 0.00 0.00 0.00 67 1029.5
20200226045034 16 142 1.0 5.0 0.00 0.00 0.00 68 1029.4
20200226044553 15 143 2.0 3.0 0.00 0.00 0.00 69 1029.3
20200226044032 14 143 3.0 3.0 0.00 0.00 0.00 69 1029.4
20200226043532 14 142 2.0 4.0 0.00 0.00 0.00 69 1029.5
20200226043029 14 143 0.0 4.0 0.00 0.00 0.00 69 1029.4
20200226042610 14 142 2.0 6.0 0.00 0.00 0.00 69 1029.3
20200226042027 14 142 2.0 6.0 0.00 0.00 0.00 68 1030.1
20200226041625 14 142 5.0 8.0 0.00 0.00 0.00 68 1030.2
20200226041042 15 143 3.0 8.0 0.00 0.00 0.00 67 1030.2
20200226040542 15 114 3.0 5.0 0.00 0.00 0.00 65 1030.2
20200226040041 16 114 4.0 5.0 0.00 0.00 0.00 64 1030.1
20200226035544 17 114 3.0 5.0 0.00 0.00 0.00 62 1030.1
20200226035044 19 114 4.0 5.0 0.00 0.00 0.00 60 1030.1
20200226034603 20 106 0.0 1.0 0.00 0.00 0.00 62 1030.1
20200226034041 20 105 0.0 2.0 0.00 0.00 0.00 62 1030.1
20200226033601 20 105 0.0 2.0 0.00 0.00 0.00 61 1030.1
20200226033038 20 105 0.0 1.0 0.00 0.00 0.00 61 1030.2
20200226032557 20 105 0.0 4.0 0.00 0.00 0.00 61 1030.4
20200226032037 20 105 1.0 4.0 0.00 0.00 0.00 61 1030.5
20200226031536 20 105 1.0 4.0 0.00 0.00 0.00 62 1030.6
20200226031034 20 105 0.0 4.0 0.00 0.00 0.00 63 1030.7
20200226030534 20 106 0.0 3.0 0.00 0.00 0.00 63 1030.7
20200226030033 20 106 1.0 4.0 0.00 0.00 0.00 63 1030.8
20200226025552 21 107 1.0 4.0 0.00 0.00 0.00 62 1030.8
20200226025033 21 118 0.0 0.0 0.00 0.00 0.00 62 1030.8
20200226024532 21 118 0.0 6.0 0.00 0.00 0.00 61 1030.8
20200226024030 21 118 0.0 10.0 0.00 0.00 0.00 61 1031.0
20200226023610 21 121 5.0 10.0 0.00 0.00 0.00 61 1031.0
20200226023027 21 145 3.0 7.0 0.00 0.00 0.00 62 1030.9
20200226022549 21 150 2.0 6.0 0.00 0.00 0.00 62 1031.0
20200226022027 21 153 1.0 7.0 0.00 0.00 0.00 62 1031.0
20200226021530 21 153 4.0 7.0 0.00 0.00 0.00 62 1031.1
20200226021031 21 159 0.0 3.0 0.00 0.00 0.00 62 1031.2
20200226020532 21 160 0.0 3.0 0.00 0.00 0.00 62 1031.1
20200226020033 21 160 1.0 6.0 0.00 0.00 0.00 62 1031.2
20200226015617 21 157 1.0 13.0 0.00 0.00 0.00 62 1031.2
20200226015038 21 137 1.0 13.0 0.00 0.00 0.00 63 1031.3
20200226014540 20 115 5.0 13.0 0.00 0.00 0.00 63 1031.4
20200226014042 21 114 8.0 13.0 0.00 0.00 0.00 63 1031.6
20200226013546 21 125 5.0 11.0 0.00 0.00 0.00 63 1031.6
20200226013025 21 118 3.0 11.0 0.00 0.00 0.00 62 1031.5
20200226012609 22 128 5.0 10.0 0.00 0.00 0.00 62 1031.6
20200226012049 22 141 2.0 10.0 0.00 0.00 0.00 62 1031.6
20200226011610 22 156 2.0 12.0 0.00 0.00 0.00 62 1031.6
20200226011030 22 153 2.0 9.0 0.00 0.00 0.00 61 1031.7
20200226010532 22 145 1.0 9.0 0.00 0.00 0.00 60 1031.5
20200226010033 23 134 3.0 9.0 0.00 0.00 0.00 59 1031.6
20200226005555 23 138 2.0 11.0 0.00 0.00 0.00 58 1031.5
20200226005057 24 157 2.0 11.0 0.00 0.00 0.00 57 1031.4
20200226004539 24 157 1.0 6.0 0.00 0.00 0.00 56 1031.4
20200226004041 24 148 1.0 7.0 0.00 0.00 0.00 56 1031.3
20200226003524 25 157 0.0 9.0 0.00 0.00 0.00 55 1031.3
20200226003031 25 173 2.0 9.0 0.00 0.00 0.00 54 1031.2
20200226002554 25 165 1.0 7.0 0.00 0.00 0.00 54 1031.2
20200226002035 26 149 2.0 7.0 0.00 0.00 0.00 53 1031.1
20200226001557 26 158 1.0 7.0 0.00 0.00 0.00 53 1031.1
20200226001039 26 167 0.0 5.0 0.00 0.00 0.00 52 1031.1
20200226000542 26 167 1.0 5.0 0.00 0.00 0.00 52 1031.1
20200226000044 26 360 0.0 5.0 0.00 0.00 0.00 49 1031.2
20200225235544 27 157 0.0 5.0 0.00 0.00 0.00 48 1031.2
20200225235023 28 157 0.0 6.0 0.00 0.00 0.00 47 1031.3
20200225234526 28 157 0.0 6.0 0.00 0.00 0.00 48 1031.2
20200225234108 28 156 1.0 4.0 0.00 0.00 0.00 47 1031.3
20200225233530 29 156 2.0 4.0 0.00 0.00 0.00 45 1031.3
20200225233113 29 157 0.0 4.0 0.00 0.00 0.00 46 1031.4
20200225232554 29 156 0.0 4.0 0.00 0.00 0.00 46 1031.4
20200225232036 29 157 0.0 4.0 0.00 0.00 0.00 45 1031.4
20200225231537 28 157 0.0 4.0 0.00 0.00 0.00 46 1031.5
20200225231038 28 157 1.0 6.0 0.00 0.00 0.00 45 1031.5
20200225230539 28 157 3.0 7.0 0.00 0.00 0.00 46 1031.5
20200225230101 28 157 3.0 7.0 0.00 0.00 0.00 48 1031.6
20200225225527 28 159 0.0 7.0 0.00 0.00 0.00 47 1031.7
20200225225049 28 159 0.0 6.0 0.00 0.00 0.00 47 1031.7
20200225224530 29 155 1.0 9.0 0.00 0.00 0.00 46 1031.7
20200225224032 29 148 1.0 9.0 0.00 0.00 0.00 46 1031.8
20200225223536 29 138 1.0 6.0 0.00 0.00 0.00 47 1031.6
20200225223037 28 133 3.0 7.0 0.00 0.00 0.00 47 1031.6
20200225222539 28 130 3.0 9.0 0.00 0.00 0.00 47 1032.5
20200225222041 29 130 3.0 9.0 0.00 0.00 0.00 46 1032.5
20200225221543 29 141 2.0 6.0 0.00 0.00 0.00 46 1032.4
20200225221044 29 160 0.0 6.0 0.00 0.00 0.00 46 1032.5
20200225220526 29 160 0.0 6.0 0.00 0.00 0.00 47 1032.5
20200225220028 30 188 0.0 3.0 0.00 0.00 0.00 46 1032.6
20200225215531 30 218 0.0 1.0 0.00 0.00 0.00 45 1032.6
20200225215053 30 218 0.0 1.0 0.00 0.00 0.00 44 1032.6
20200225214535 29 360 0.0 4.0 0.00 0.00 0.00 45 1032.6
20200225214041 29 360 2.0 4.0 0.00 0.00 0.00 45 1032.7
20200225213605 29 360 2.0 4.0 0.00 0.00 0.00 45 1032.8
20200225213025 29 360 1.0 7.0 0.00 0.00 0.00 46 1032.8
20200225212607 29 360 2.0 8.0 0.00 0.00 0.00 45 1032.9
20200225212027 29 219 4.0 8.0 0.00 0.00 0.00 46 1032.9
20200225211530 29 229 0.0 6.0 0.00 0.00 0.00 46 1032.9
20200225211033 28 229 0.0 9.0 0.00 0.00 0.00 47 1032.8
20200225210557 28 228 0.0 9.0 0.00 0.00 0.00 48 1033.0
20200225210036 28 229 0.0 7.0 0.00 0.00 0.00 48 1032.9
20200225205539 28 228 3.0 9.0 0.00 0.00 0.00 47 1032.8
20200225205101 29 236 6.0 9.0 0.00 0.00 0.00 48 1032.9
20200225204543 29 38 0.0 1.0 0.00 0.00 0.00 48 1033.0
20200225204025 28 38 0.0 3.0 0.00 0.00 0.00 49 1032.9
20200225203528 27 360 2.0 5.0 0.00 0.00 0.00 49 1032.9
20200225203028 27 360 0.0 7.0 0.00 0.00 0.00 49 1033.0
20200225202530 27 40 4.0 7.0 0.00 0.00 0.00 49 1033.0
20200225202036 28 360 5.0 7.0 0.00 0.00 0.00 48 1033.1
20200225201539 28 287 2.0 7.0 0.00 0.00 0.00 48 1033.1
20200225201101 28 360 0.0 6.0 0.00 0.00 0.00 47 1033.1
20200225200544 28 360 3.0 8.0 0.00 0.00 0.00 48 1033.2
20200225200026 28 360 4.0 8.0 0.00 0.00 0.00 47 1033.3
20200225195609 28 360 0.0 6.0 0.00 0.00 0.00 48 1033.3
20200225195029 28 360 1.0 6.0 0.00 0.00 0.00 47 1033.4
20200225194532 28 360 2.0 7.0 0.00 0.00 0.00 48 1033.4
20200225194034 27 304 4.0 7.0 0.00 0.00 0.00 49 1033.5
20200225193558 27 360 5.0 7.0 0.00 0.00 0.00 50 1033.7
20200225193119 27 360 4.0 9.0 0.00 0.00 0.00 49 1033.7
20200225192540 28 360 4.0 9.0 0.00 0.00 0.00 49 1033.7
20200225192042 28 360 2.0 10.0 0.00 0.00 0.00 48 1033.7
20200225191544 28 360 5.0 11.0 0.00 0.00 0.00 48 1033.7
20200225191042 28 360 4.0 12.0 0.00 0.00 0.00 49 1033.7
20200225190526 28 360 7.0 12.0 0.00 0.00 0.00 48 1033.7
20200225190027 28 360 9.0 12.0 0.00 0.00 0.00 48 1033.8
20200225185533 27 360 6.0 13.0 0.00 0.00 0.00 51 1034.0
20200225185111 27 360 6.0 16.0 0.00 0.00 0.00 52 1033.9
20200225184535 26 360 10.0 16.0 0.00 0.00 0.00 53 1033.8
20200225184037 27 360 8.0 15.0 0.00 0.00 0.00 52 1033.8
20200225183540 28 272 9.0 14.0 0.00 0.00 0.00 52 1033.9
20200225183040 28 360 7.0 13.0 0.00 0.00 0.00 52 1034.0
20200225182523 27 360 4.0 11.0 0.00 0.00 0.00 55 1033.9
20200225182105 27 360 6.0 11.0 0.00 0.00 0.00 56 1033.9
20200225181526 26 360 2.0 9.0 0.00 0.00 0.00 57 1033.7
20200225181028 26 360 6.0 13.0 0.00 0.00 0.00 58 1033.8
20200225180552 25 360 5.0 13.0 0.00 0.00 0.00 57 1033.7